Aloma, Florida
Current Conditions -  °F | °C
As of 5:53 AM on Thursday 23 Oct 2014 (Local Time) from KORL Reporting Station
Clear Clear  
Wind Chill: 65°   Ceiling: Unl
Heat Index: 65°   Visibility: 10mi
Dew Point: 57°   Wind: 7mph
Humidity: 75%   Direction: 10°N
Pressure: 29.97"   Gusts: NA
Location:  28.6093°N, 81.2979°W
Report Text: KORL 230953Z AUTO 01006KT 10SM CLR 18/14 A2997 RMK AO2 SLP152 T01830139
Loading
Personal Weather Stations






























Interactive Weather Map
Tropical Storm Tracking
New forecast layout! Learn more

10-Day Weather Forecast

Advertisements
Track Severe Weather on mobile